Time;durP1;ratioP1;P1;durP2;ratioP2;P2;SDS_P1;SDS_P2;PMS_P1;PMS_P2;Temp;Humidity;BMP_temperature;BMP_pressure;BME280_temperature;BME280_humidity;BME280_pressure;Samples;Min_cycle;Max_cycle;Signal;HPM_P1;HPM_P2
2023/07/07 00:00:56;;;;;;;6.55;2.97;;;13.60;99.90;;;;;;5071154;28;20070;-55
2023/07/07 00:03:22;;;;;;;12.90;3.25;;;13.60;99.90;;;;;;5071023;28;20498;-57
2023/07/07 00:05:48;;;;;;;13.38;3.75;;;13.60;99.90;;;;;;5070809;28;20392;-57
2023/07/07 00:08:14;;;;;;;10.27;3.63;;;13.50;99.90;;;;;;5069566;28;20522;-56
2023/07/07 00:10:42;;;;;;;9.20;3.03;;;13.50;99.90;;;;;;5070997;28;20029;-55
2023/07/07 00:13:12;;;;;;;13.63;3.65;;;13.40;99.90;;;;;;5071012;28;20141;-58
2023/07/07 00:15:43;;;;;;;9.15;3.92;;;13.40;99.90;;;;;;5070939;28;20504;-54
2023/07/07 00:18:09;;;;;;;8.90;3.42;;;13.40;99.90;;;;;;5070729;28;20044;-58
2023/07/07 00:20:35;;;;;;;14.00;4.00;;;13.30;99.90;;;;;;5070738;28;20032;-56
2023/07/07 00:23:00;;;;;;;13.75;3.53;;;13.30;99.90;;;;;;5070855;28;20527;-57
2023/07/07 00:25:26;;;;;;;14.18;4.03;;;13.20;99.90;;;;;;5070677;28;20092;-51
2023/07/07 00:27:52;;;;;;;10.48;3.80;;;13.20;99.90;;;;;;5070634;28;20021;-53
2023/07/07 00:30:17;;;;;;;9.00;4.30;;;13.20;99.90;;;;;;5070653;28;20031;-59
2023/07/07 00:32:43;;;;;;;12.45;6.43;;;13.20;99.90;;;;;;5070720;28;20025;-54
2023/07/07 00:35:08;;;;;;;12.85;7.05;;;13.10;99.90;;;;;;5070601;28;20052;-52
2023/07/07 00:37:35;;;;;;;14.40;8.05;;;13.10;99.90;;;;;;5070434;28;20391;-56
2023/07/07 00:40:02;;;;;;;11.15;6.70;;;13.10;99.90;;;;;;5070663;28;20475;-57
2023/07/07 00:42:28;;;;;;;11.00;6.68;;;13.10;99.90;;;;;;5070433;28;20024;-60
2023/07/07 00:45:12;;;;;;;16.08;6.70;;;13.00;99.90;;;;;;5070573;28;20028;-56
2023/07/07 00:47:53;;;;;;;12.75;5.95;;;13.00;99.90;;;;;;5070446;28;20024;-56
2023/07/07 00:50:21;;;;;;;11.32;4.53;;;13.00;99.90;;;;;;5073269;28;20027;-58
2023/07/07 00:52:47;;;;;;;11.35;5.18;;;13.00;99.90;;;;;;5074111;28;20077;-55
2023/07/07 00:55:24;;;;;;;7.25;4.40;;;13.00;99.90;;;;;;5074010;28;20028;-55
2023/07/07 00:57:50;;;;;;;15.18;5.40;;;13.00;99.90;;;;;;5073925;28;20029;-53
2023/07/07 01:00:16;;;;;;;7.03;4.07;;;13.00;99.90;;;;;;5073955;28;20047;-55
2023/07/07 01:02:53;;;;;;;7.97;4.10;;;13.00;99.90;;;;;;5074011;28;20025;-59
2023/07/07 01:05:20;;;;;;;9.15;3.53;;;13.00;99.90;;;;;;5073870;28;20028;-58
2023/07/07 01:07:51;;;;;;;8.02;3.30;;;12.90;99.90;;;;;;5073778;28;20264;-58
2023/07/07 01:10:20;;;;;;;12.35;3.55;;;12.90;99.90;;;;;;5073846;28;20017;-53
2023/07/07 01:12:48;;;;;;;7.30;3.25;;;12.90;99.90;;;;;;5074033;28;20028;-59
2023/07/07 01:15:14;;;;;;;8.05;3.70;;;12.80;99.90;;;;;;5073651;28;20427;-56
2023/07/07 01:17:51;;;;;;;9.10;3.63;;;12.90;99.90;;;;;;5073568;28;20028;-56
2023/07/07 01:20:41;;;;;;;7.15;2.72;;;12.80;99.90;;;;;;5073669;28;20143;-55
2023/07/07 01:23:38;;;;;;;9.25;3.60;;;12.80;99.90;;;;;;5073357;28;20029;-59
2023/07/07 01:26:19;;;;;;;10.88;3.72;;;12.80;99.90;;;;;;5073620;28;20021;-54
2023/07/07 01:29:03;;;;;;;9.57;3.40;;;12.80;99.90;;;;;;5073374;28;20032;-56
2023/07/07 01:31:40;;;;;;;8.98;3.40;;;12.80;99.90;;;;;;5073685;28;20025;-57
2023/07/07 01:34:09;;;;;;;5.97;3.55;;;12.80;99.90;;;;;;5073333;28;20105;-56
2023/07/07 01:36:34;;;;;;;9.63;3.60;;;12.80;99.90;;;;;;5073198;28;20028;-54
2023/07/07 01:39:00;;;;;;;5.63;3.72;;;12.80;99.90;;;;;;5073565;28;20494;-56
2023/07/07 01:41:39;;;;;;;9.50;3.95;;;12.70;99.90;;;;;;5072978;28;20028;-55
2023/07/07 01:44:38;;;;;;;10.38;3.42;;;12.70;99.90;;;;;;5073175;28;20025;-54
2023/07/07 01:47:28;;;;;;;9.82;4.22;;;12.80;99.90;;;;;;5073148;28;20031;-57
2023/07/07 01:49:58;;;;;;;8.48;3.75;;;12.70;99.90;;;;;;5072966;28;20016;-58
2023/07/07 01:52:26;;;;;;;7.95;3.40;;;12.70;99.90;;;;;;5073236;28;20429;-57
2023/07/07 01:55:00;;;;;;;6.43;3.38;;;12.70;99.90;;;;;;5073017;28;20395;-58
2023/07/07 01:57:27;;;;;;;8.15;3.30;;;12.70;99.90;;;;;;5072912;28;20020;-57
2023/07/07 01:59:54;;;;;;;12.77;3.55;;;12.70;99.90;;;;;;5072897;28;20529;-56
2023/07/07 02:02:20;;;;;;;6.45;3.40;;;12.60;99.90;;;;;;5072722;28;20032;-58
2023/07/07 02:04:46;;;;;;;10.43;3.88;;;12.60;99.90;;;;;;5072740;28;20104;-57
2023/07/07 02:07:11;;;;;;;8.15;3.85;;;12.60;99.90;;;;;;5072857;28;20546;-60
2023/07/07 02:09:38;;;;;;;7.03;3.45;;;12.50;99.90;;;;;;5072570;28;20105;-59
2023/07/07 02:12:04;;;;;;;6.20;3.38;;;12.50;99.90;;;;;;5072731;28;20673;-54
2023/07/07 02:14:29;;;;;;;7.82;3.92;;;12.50;99.90;;;;;;5071878;28;20035;-53
2023/07/07 02:16:55;;;;;;;7.35;3.58;;;12.50;99.90;;;;;;5072442;28;20431;-58
2023/07/07 02:19:20;;;;;;;9.23;3.97;;;12.50;99.90;;;;;;5072390;28;20613;-52
2023/07/07 02:21:46;;;;;;;9.68;3.15;;;12.40;99.90;;;;;;5072431;28;20513;-57
2023/07/07 02:24:12;;;;;;;6.97;3.75;;;12.40;99.90;;;;;;5072325;28;20513;-60
2023/07/07 02:26:37;;;;;;;7.97;3.55;;;12.40;99.90;;;;;;5072400;28;20421;-58
2023/07/07 02:29:03;;;;;;;10.60;3.58;;;12.30;99.90;;;;;;5072135;28;20032;-58
2023/07/07 02:31:28;;;;;;;7.88;3.53;;;12.40;99.90;;;;;;5072096;28;20028;-56
2023/07/07 02:33:54;;;;;;;7.63;3.22;;;12.40;99.90;;;;;;5072189;28;20039;-57
2023/07/07 02:36:19;;;;;;;11.65;4.20;;;12.30;99.90;;;;;;5072062;28;20035;-59
2023/07/07 02:38:46;;;;;;;9.55;3.75;;;12.20;99.90;;;;;;5072124;28;20032;-57
2023/07/07 02:41:12;;;;;;;8.00;3.63;;;12.20;99.90;;;;;;5071901;28;20457;-61
2023/07/07 02:43:37;;;;;;;7.55;3.45;;;12.20;99.90;;;;;;5071928;28;20108;-55
2023/07/07 02:46:03;;;;;;;8.65;3.72;;;12.30;99.90;;;;;;5071902;28;20048;-58
2023/07/07 02:48:29;;;;;;;6.57;3.15;;;12.30;99.90;;;;;;5071750;28;20506;-57
2023/07/07 02:51:00;;;;;;;8.43;3.38;;;12.30;99.90;;;;;;5071936;28;20090;-54
2023/07/07 02:53:28;;;;;;;9.82;3.58;;;12.20;99.90;;;;;;5071844;28;20103;-57
2023/07/07 02:55:54;;;;;;;8.63;4.00;;;12.20;99.90;;;;;;5071849;28;20443;-56
2023/07/07 02:58:21;;;;;;;15.27;3.40;;;12.30;99.90;;;;;;5071577;28;20056;-58
2023/07/07 03:00:48;;;;;;;8.88;3.80;;;12.20;99.90;;;;;;5071664;28;20029;-54
2023/07/07 03:03:14;;;;;;;12.20;4.03;;;12.20;99.90;;;;;;5071949;28;20031;-52
2023/07/07 03:05:40;;;;;;;11.70;3.72;;;12.20;99.90;;;;;;5071652;28;20085;-53
2023/07/07 03:08:06;;;;;;;11.32;3.17;;;12.10;99.90;;;;;;5071486;28;20061;-57
2023/07/07 03:10:32;;;;;;;12.00;3.55;;;12.10;99.90;;;;;;5071426;28;20499;-58
2023/07/07 03:12:58;;;;;;;7.53;3.63;;;12.10;99.90;;;;;;5071247;28;20057;-57
2023/07/07 03:15:26;;;;;;;8.85;3.50;;;12.10;99.90;;;;;;5071244;28;20394;-54
2023/07/07 03:17:52;;;;;;;6.93;3.20;;;12.10;99.90;;;;;;5071321;28;20128;-60
2023/07/07 03:20:17;;;;;;;7.38;3.30;;;12.10;99.90;;;;;;5070120;28;20108;-60
2023/07/07 03:22:43;;;;;;;7.78;3.80;;;12.10;99.90;;;;;;5071471;28;20052;-57
2023/07/07 03:25:09;;;;;;;11.32;3.75;;;12.20;99.90;;;;;;5071338;28;20036;-57
2023/07/07 03:27:34;;;;;;;5.75;3.70;;;12.20;99.90;;;;;;5071164;28;20048;-58
2023/07/07 03:30:00;;;;;;;9.82;4.07;;;12.20;99.90;;;;;;5071462;28;20548;-59
2023/07/07 03:32:27;;;;;;;6.72;3.47;;;12.20;99.90;;;;;;5071321;28;20076;-58
2023/07/07 03:34:53;;;;;;;7.65;3.33;;;12.20;99.90;;;;;;5071261;28;20505;-55
2023/07/07 03:37:19;;;;;;;7.82;3.08;;;12.30;99.90;;;;;;5071181;28;20033;-59
2023/07/07 03:39:45;;;;;;;7.63;3.03;;;12.20;99.90;;;;;;5071098;28;20100;-59
2023/07/07 03:42:10;;;;;;;12.50;3.40;;;12.30;99.90;;;;;;5071159;28;20207;-58
2023/07/07 03:44:36;;;;;;;7.07;3.55;;;12.30;99.90;;;;;;5070976;28;20057;-54
2023/07/07 03:47:02;;;;;;;5.97;3.30;;;12.30;99.90;;;;;;5071175;28;20055;-55
2023/07/07 03:49:27;;;;;;;4.38;2.65;;;12.40;99.90;;;;;;5071003;28;20035;-59
2023/07/07 03:51:53;;;;;;;5.72;2.67;;;12.40;99.90;;;;;;5071218;28;20032;-56
2023/07/07 03:54:18;;;;;;;7.88;2.72;;;12.50;99.90;;;;;;5071036;28;20038;-58
2023/07/07 03:56:44;;;;;;;3.88;2.50;;;12.50;99.90;;;;;;5071145;28;20036;-58
2023/07/07 03:59:09;;;;;;;4.90;2.60;;;12.50;99.90;;;;;;5070814;28;20035;-62
2023/07/07 04:01:35;;;;;;;5.68;2.53;;;12.50;99.90;;;;;;5071031;28;20021;-58
2023/07/07 04:04:00;;;;;;;6.95;3.08;;;12.60;99.90;;;;;;5071027;28;20021;-58
2023/07/07 04:06:26;;;;;;;4.35;2.40;;;12.60;99.90;;;;;;5069629;28;20025;-56
2023/07/07 04:08:52;;;;;;;7.70;3.55;;;12.50;99.90;;;;;;5070908;28;20025;-58
2023/07/07 04:11:20;;;;;;;5.65;2.70;;;12.50;99.90;;;;;;5071008;28;20036;-58
2023/07/07 04:13:48;;;;;;;5.63;3.20;;;12.50;99.90;;;;;;5070688;28;20044;-56
2023/07/07 04:16:17;;;;;;;4.20;2.85;;;12.60;99.90;;;;;;5070750;28;20024;-56
2023/07/07 04:18:44;;;;;;;7.70;2.58;;;12.60;99.90;;;;;;5070767;28;20079;-57
2023/07/07 04:21:16;;;;;;;6.93;2.95;;;12.60;99.90;;;;;;5070894;28;20028;-57
2023/07/07 04:23:44;;;;;;;4.90;2.33;;;12.70;99.90;;;;;;5071140;28;20054;-60
2023/07/07 04:26:10;;;;;;;5.65;2.88;;;12.70;99.90;;;;;;5074576;28;20035;-58
2023/07/07 04:28:37;;;;;;;5.30;2.42;;;12.80;99.90;;;;;;5074397;28;20055;-60
2023/07/07 04:31:04;;;;;;;4.53;2.13;;;12.80;99.90;;;;;;5074730;28;20143;-58
2023/07/07 04:33:31;;;;;;;4.45;2.92;;;12.90;99.90;;;;;;5074296;28;20032;-58
2023/07/07 04:35:59;;;;;;;7.82;2.83;;;12.90;99.90;;;;;;5074640;28;20431;-54
2023/07/07 04:38:32;;;;;;;5.90;2.85;;;13.00;99.90;;;;;;5074256;28;20029;-57
2023/07/07 04:41:22;;;;;;;5.05;2.45;;;13.00;99.90;;;;;;5074741;28;20449;-58
2023/07/07 04:43:49;;;;;;;8.73;2.45;;;13.10;99.90;;;;;;5074239;28;20025;-52
2023/07/07 04:46:19;;;;;;;20.98;3.55;;;13.20;99.90;;;;;;5074146;28;20028;-55
2023/07/07 04:48:44;;;;;;;5.32;2.83;;;13.20;99.90;;;;;;5074142;28;20025;-60
2023/07/07 04:51:11;;;;;;;5.88;2.63;;;13.30;99.90;;;;;;5074199;28;20078;-56
2023/07/07 04:53:39;;;;;;;9.68;3.05;;;13.30;99.90;;;;;;5074151;28;20051;-58
2023/07/07 04:56:09;;;;;;;4.82;2.50;;;13.30;99.90;;;;;;5074375;28;20575;-56
2023/07/07 04:58:36;;;;;;;13.98;3.83;;;13.40;99.90;;;;;;5073788;28;20475;-57
2023/07/07 05:01:15;;;;;;;5.35;2.55;;;13.40;99.90;;;;;;5074077;28;20108;-58
2023/07/07 05:03:42;;;;;;;5.45;2.72;;;13.40;99.90;;;;;;5073851;28;20024;-58
2023/07/07 05:06:09;;;;;;;5.57;2.67;;;13.50;99.90;;;;;;5074152;28;20024;-59
2023/07/07 05:08:37;;;;;;;5.85;2.90;;;13.50;99.90;;;;;;5073630;28;20104;-53
2023/07/07 05:11:04;;;;;;;6.93;2.45;;;13.50;99.90;;;;;;5073914;28;20017;-60
2023/07/07 05:13:29;;;;;;;5.63;2.75;;;13.60;99.90;;;;;;5073683;28;20398;-58
2023/07/07 05:16:03;;;;;;;7.15;2.65;;;13.60;99.90;;;;;;5074472;28;20017;-56
2023/07/07 05:18:29;;;;;;;4.93;2.67;;;13.70;99.90;;;;;;5073693;28;20020;-60
2023/07/07 05:20:54;;;;;;;3.95;2.70;;;13.80;99.90;;;;;;5073773;28;20544;-60
2023/07/07 05:23:20;;;;;;;5.57;2.85;;;13.80;99.90;;;;;;5073518;28;20082;-56
2023/07/07 05:25:45;;;;;;;5.15;2.42;;;13.80;99.90;;;;;;5073706;28;20028;-58
2023/07/07 05:28:11;;;;;;;7.07;2.10;;;13.90;99.90;;;;;;5073339;28;20020;-57
2023/07/07 05:30:39;;;;;;;7.63;2.63;;;13.90;99.90;;;;;;5072195;28;20016;-57
2023/07/07 05:33:04;;;;;;;5.03;2.50;;;14.00;99.90;;;;;;5073574;28;20036;-56
2023/07/07 05:35:30;;;;;;;6.38;2.30;;;14.10;99.90;;;;;;5073049;28;20051;-53
2023/07/07 05:37:55;;;;;;;6.18;2.63;;;14.10;99.90;;;;;;5073239;28;20126;-58
2023/07/07 05:40:21;;;;;;;4.85;2.22;;;14.20;99.90;;;;;;5073413;28;20047;-61
2023/07/07 05:42:46;;;;;;;3.20;2.00;;;14.20;99.90;;;;;;5073198;28;20154;-54
2023/07/07 05:45:12;;;;;;;4.88;2.15;;;14.30;99.90;;;;;;5073099;28;20450;-57
2023/07/07 05:47:37;;;;;;;7.20;2.00;;;14.30;99.90;;;;;;5073072;28;20530;-57
2023/07/07 05:50:03;;;;;;;3.67;1.98;;;14.40;99.90;;;;;;5073145;28;20032;-57
2023/07/07 05:52:29;;;;;;;6.55;2.35;;;14.50;99.90;;;;;;5071997;28;20490;-55
2023/07/07 05:54:56;;;;;;;8.73;1.98;;;14.60;99.90;;;;;;5073219;28;20024;-60
2023/07/07 05:57:22;;;;;;;7.60;2.33;;;14.60;99.90;;;;;;5073082;28;20031;-58
2023/07/07 05:59:48;;;;;;;5.45;1.65;;;14.70;99.90;;;;;;5072901;28;20048;-57
2023/07/07 06:02:13;;;;;;;5.78;2.08;;;14.80;99.90;;;;;;5072939;28;20064;-58
2023/07/07 06:04:39;;;;;;;6.45;1.88;;;14.90;99.90;;;;;;5072879;28;20071;-60
2023/07/07 06:07:05;;;;;;;5.63;2.20;;;15.00;99.90;;;;;;5072958;28;20021;-59
2023/07/07 06:09:31;;;;;;;4.72;1.73;;;15.10;99.90;;;;;;5072764;28;20024;-60
2023/07/07 06:11:56;;;;;;;5.88;1.83;;;15.10;99.90;;;;;;5072787;28;20028;-58
2023/07/07 06:14:22;;;;;;;3.33;1.75;;;15.20;99.90;;;;;;5072606;28;20024;-59
2023/07/07 06:16:47;;;;;;;3.75;1.75;;;15.30;99.90;;;;;;5072588;28;20032;-54
2023/07/07 06:19:13;;;;;;;7.63;1.95;;;15.40;99.90;;;;;;5072398;28;20032;-61
2023/07/07 06:21:38;;;;;;;7.28;2.53;;;15.40;99.90;;;;;;5072528;28;20029;-61
2023/07/07 06:24:04;;;;;;;6.68;1.77;;;15.50;99.90;;;;;;5072415;28;20109;-62
2023/07/07 06:26:29;;;;;;;4.47;1.90;;;15.60;99.90;;;;;;5072383;28;20043;-57
2023/07/07 06:28:56;;;;;;;7.85;2.50;;;15.70;99.90;;;;;;5072244;28;20035;-56
2023/07/07 06:31:22;;;;;;;6.20;2.10;;;15.80;99.90;;;;;;5072328;28;20024;-56
2023/07/07 06:33:48;;;;;;;6.07;1.90;;;16.00;99.90;;;;;;5072185;28;20021;-57
2023/07/07 06:36:14;;;;;;;4.55;1.65;;;16.00;99.90;;;;;;5072098;28;20029;-55
2023/07/07 06:38:40;;;;;;;4.30;1.98;;;16.10;99.90;;;;;;5072119;28;20024;-55
2023/07/07 06:41:09;;;;;;;4.18;1.70;;;16.20;99.90;;;;;;5072000;28;20048;-57
2023/07/07 06:43:35;;;;;;;7.75;1.98;;;16.30;99.90;;;;;;5071772;28;20089;-61
2023/07/07 06:46:00;;;;;;;6.38;1.73;;;16.40;99.90;;;;;;5071896;28;20511;-58
2023/07/07 06:48:26;;;;;;;2.78;1.88;;;16.50;99.90;;;;;;5070051;28;20021;-60
2023/07/07 06:50:51;;;;;;;3.28;1.40;;;16.60;99.90;;;;;;5072023;28;20025;-60
2023/07/07 06:53:17;;;;;;;3.35;1.77;;;16.70;99.90;;;;;;5071789;28;20032;-55
2023/07/07 06:55:43;;;;;;;5.22;2.92;;;16.70;99.90;;;;;;5071750;28;20063;-59
2023/07/07 06:58:11;;;;;;;7.15;1.83;;;16.90;99.90;;;;;;5071603;28;20483;-56
2023/07/07 07:00:36;;;;;;;3.75;1.70;;;16.90;99.90;;;;;;5071690;28;20035;-61
2023/07/07 07:03:03;;;;;;;4.90;1.83;;;17.10;99.90;;;;;;5071828;28;20024;-59
2023/07/07 07:05:28;;;;;;;2.40;1.50;;;17.10;99.90;;;;;;5071821;28;20097;-58
2023/07/07 07:07:54;;;;;;;2.85;1.70;;;17.20;99.90;;;;;;5071533;28;20542;-57
2023/07/07 07:10:20;;;;;;;7.18;2.17;;;17.30;99.90;;;;;;5071514;28;20505;-51
2023/07/07 07:12:45;;;;;;;8.30;1.90;;;17.50;99.90;;;;;;5071536;28;20028;-60
2023/07/07 07:15:11;;;;;;;30.13;3.58;;;17.60;99.90;;;;;;5071431;28;20032;-59
2023/07/07 07:17:36;;;;;;;27.40;2.65;;;17.70;99.90;;;;;;5071524;28;20395;-53
2023/07/07 07:20:05;;;;;;;4.40;1.60;;;17.80;99.90;;;;;;5071660;28;20017;-55
2023/07/07 07:22:31;;;;;;;10.02;1.90;;;17.90;99.90;;;;;;5071604;28;20371;-57
2023/07/07 07:24:56;;;;;;;9.60;2.00;;;18.10;99.90;;;;;;5071531;28;20039;-54
2023/07/07 07:27:22;;;;;;;10.70;1.98;;;18.20;99.90;;;;;;5071237;28;20036;-57
2023/07/07 07:29:47;;;;;;;9.40;2.20;;;18.30;99.90;;;;;;5071349;28;20052;-53
2023/07/07 07:32:13;;;;;;;9.80;2.05;;;18.40;99.90;;;;;;5071569;28;20032;-56
2023/07/07 07:34:38;;;;;;;7.82;1.63;;;18.40;99.90;;;;;;5071328;28;20027;-55
2023/07/07 07:37:05;;;;;;;4.60;1.65;;;18.50;99.90;;;;;;5071317;28;20039;-57
2023/07/07 07:39:32;;;;;;;14.10;2.28;;;18.50;99.90;;;;;;5071063;28;20078;-55
2023/07/07 07:41:57;;;;;;;10.23;1.90;;;18.70;99.90;;;;;;5071097;28;20032;-52
2023/07/07 07:44:24;;;;;;;4.85;1.70;;;18.90;99.90;;;;;;5071076;28;20032;-59
2023/07/07 07:46:52;;;;;;;4.10;1.60;;;19.00;99.90;;;;;;5071189;28;20103;-54
2023/07/07 07:49:18;;;;;;;28.60;3.45;;;19.10;99.90;;;;;;5071189;28;20017;-51
2023/07/07 07:51:44;;;;;;;15.85;3.50;;;19.30;99.90;;;;;;5071281;28;20512;-51
2023/07/07 07:54:12;;;;;;;19.52;2.33;;;19.40;99.90;;;;;;5071147;28;20029;-54
2023/07/07 07:56:38;;;;;;;36.40;3.20;;;19.40;99.90;;;;;;5070987;28;20040;-52
2023/07/07 07:59:05;;;;;;;7.47;2.00;;;19.50;99.90;;;;;;5073695;28;20363;-57
2023/07/07 08:01:31;;;;;;;9.77;2.25;;;19.60;99.90;;;;;;5075025;28;20040;-58
2023/07/07 08:03:56;;;;;;;13.38;2.17;;;19.70;99.90;;;;;;5075090;28;20024;-51
2023/07/07 08:06:22;;;;;;;3.38;1.77;;;19.80;99.90;;;;;;5075121;28;20021;-57
2023/07/07 08:08:48;;;;;;;4.13;1.50;;;19.90;99.90;;;;;;5074963;28;20040;-56
2023/07/07 08:11:17;;;;;;;8.95;2.75;;;20.00;99.90;;;;;;5075009;28;20730;-55
2023/07/07 08:13:42;;;;;;;3.63;1.40;;;20.10;99.90;;;;;;5075001;28;20037;-59
2023/07/07 08:16:12;;;;;;;6.78;1.73;;;20.30;99.90;;;;;;5074977;28;20025;-54
2023/07/07 08:18:39;;;;;;;4.03;1.80;;;20.40;99.90;;;;;;5074633;28;20521;-56
2023/07/07 08:21:04;;;;;;;19.90;2.70;;;20.60;99.90;;;;;;5074967;28;20032;-56
2023/07/07 08:23:30;;;;;;;4.35;1.60;;;20.60;99.90;;;;;;5074491;28;20031;-49
2023/07/07 08:25:56;;;;;;;3.20;1.90;;;20.70;99.90;;;;;;5074830;28;20483;-52
2023/07/07 08:28:22;;;;;;;9.82;1.75;;;20.80;99.90;;;;;;5074379;28;20411;-56
2023/07/07 08:30:47;;;;;;;11.77;1.75;;;21.00;99.90;;;;;;5074788;28;20070;-56
2023/07/07 08:33:13;;;;;;;5.72;1.70;;;21.10;99.90;;;;;;5074751;28;20029;-54
2023/07/07 08:35:38;;;;;;;5.57;2.00;;;21.20;99.90;;;;;;5074616;28;20028;-56
2023/07/07 08:38:04;;;;;;;3.72;1.45;;;21.20;99.90;;;;;;5074336;28;20072;-58
2023/07/07 08:40:45;;;;;;;3.92;1.25;;;21.50;99.90;;;;;;5074392;28;20394;-58
2023/07/07 08:43:11;;;;;;;5.90;1.58;;;21.70;99.90;;;;;;5074438;28;20039;-56
2023/07/07 08:45:42;;;;;;;5.90;2.08;;;21.90;99.90;;;;;;5074160;28;20104;-58
2023/07/07 08:48:37;;;;;;;3.53;1.60;;;22.00;99.90;;;;;;5074277;28;20034;-53
2023/07/07 08:51:06;;;;;;;16.17;2.42;;;22.20;99.90;;;;;;5074406;28;20085;-58
2023/07/07 08:53:35;;;;;;;7.70;2.20;;;22.40;99.90;;;;;;5074109;28;20036;-58
2023/07/07 08:56:03;;;;;;;8.30;1.85;;;22.60;99.90;;;;;;5074237;28;20056;-58
2023/07/07 08:58:52;;;;;;;4.43;2.08;;;22.60;99.90;;;;;;5072635;28;20115;-60
2023/07/07 09:01:36;;;;;;;7.65;2.00;;;22.80;99.90;;;;;;5073999;28;20021;-59
2023/07/07 09:04:03;;;;;;;;;;;22.90;99.90;;;;;;5074530;28;20031;-56
2023/07/07 09:06:47;;;;;;;4.35;2.00;;;23.10;99.90;;;;;;5073902;28;19911;-60
2023/07/07 09:09:39;;;;;;;4.70;1.98;;;23.20;99.90;;;;;;5073458;28;20108;-59
2023/07/07 09:12:26;;;;;;;5.18;1.90;;;23.30;99.90;;;;;;5074116;28;20035;-58
2023/07/07 09:14:55;;;;;;;11.32;2.47;;;23.50;99.90;;;;;;5073984;28;20046;-59
2023/07/07 09:17:28;;;;;;;5.90;1.98;;;23.70;99.90;;;;;;5073918;28;20013;-57
2023/07/07 09:19:55;;;;;;;12.30;2.30;;;23.90;99.90;;;;;;5073616;28;20016;-54
2023/07/07 09:22:29;;;;;;;18.92;2.60;;;24.00;99.90;;;;;;5073783;28;20098;-56
2023/07/07 09:25:12;;;;;;;3.85;1.95;;;24.20;99.90;;;;;;5073607;28;20056;-56
2023/07/07 09:27:45;;;;;;;11.95;2.20;;;24.20;98.70;;;;;;5073367;28;20029;-59
2023/07/07 09:30:19;;;;;;;12.30;2.55;;;24.50;98.60;;;;;;5073581;28;20044;-54
2023/07/07 09:32:46;;;;;;;11.98;2.78;;;24.60;99.70;;;;;;5073646;28;20033;-60
2023/07/07 09:35:13;;;;;;;4.63;1.85;;;24.80;97.90;;;;;;5073540;28;20028;-56
2023/07/07 09:37:56;;;;;;;8.75;2.00;;;24.90;95.70;;;;;;5073321;28;20028;-56
2023/07/07 09:40:34;;;;;;;4.75;1.70;;;25.10;96.30;;;;;;5073486;28;20060;-55
2023/07/07 09:43:18;;;;;;;9.70;1.92;;;25.20;92.90;;;;;;5073289;28;20024;-57
2023/07/07 09:45:54;;;;;;;3.60;1.95;;;25.30;94.50;;;;;;5073321;28;20075;-54
2023/07/07 09:48:49;;;;;;;6.28;1.73;;;25.50;92.80;;;;;;5073071;28;20036;-59
2023/07/07 09:51:29;;;;;;;8.25;1.73;;;25.60;91.10;;;;;;5073128;28;20202;-52
2023/07/07 09:53:55;;;;;;;6.22;2.10;;;25.80;86.20;;;;;;5073221;28;20099;-58
2023/07/07 09:56:26;;;;;;;6.10;2.30;;;25.90;85.70;;;;;;5073048;28;20440;-56
2023/07/07 09:59:14;;;;;;;4.45;2.03;;;26.10;87.30;;;;;;5072912;28;20029;-54
2023/07/07 10:01:46;;;;;;;5.13;2.00;;;26.10;76.30;;;;;;5071595;28;20021;-54
2023/07/07 10:04:14;;;;;;;3.92;1.85;;;26.10;73.20;;;;;;5073248;28;20387;-54
2023/07/07 10:06:48;;;;;;;5.03;2.38;;;26.00;73.40;;;;;;5072910;28;20387;-56
2023/07/07 10:09:14;;;;;;;4.30;2.15;;;26.30;74.60;;;;;;5072804;28;20098;-58
2023/07/07 10:11:42;;;;;;;3.88;2.28;;;26.60;73.40;;;;;;5072848;28;20025;-57
2023/07/07 10:14:12;;;;;;;6.32;1.92;;;26.70;71.50;;;;;;5071333;28;20027;-60
2023/07/07 10:16:50;;;;;;;5.70;1.75;;;27.00;71.50;;;;;;5072574;28;20059;-60
2023/07/07 10:19:16;;;;;;;4.35;1.92;;;27.10;70.10;;;;;;5072466;28;20025;-60
2023/07/07 10:21:42;;;;;;;6.00;1.70;;;27.30;71.80;;;;;;5071491;28;20043;-55
2023/07/07 10:24:11;;;;;;;3.78;2.00;;;27.40;69.20;;;;;;5072387;28;20415;-57
2023/07/07 10:26:44;;;;;;;5.47;2.10;;;27.60;67.30;;;;;;5072372;28;20134;-56
2023/07/07 10:29:15;;;;;;;3.83;1.95;;;27.90;70.30;;;;;;5072307;28;20021;-58
2023/07/07 10:31:42;;;;;;;10.73;2.30;;;28.20;69.20;;;;;;5072409;28;20048;-58
2023/07/07 10:34:21;;;;;;;6.32;1.80;;;28.30;69.00;;;;;;5072286;28;20020;-58
2023/07/07 10:36:47;;;;;;;3.28;1.90;;;28.60;63.60;;;;;;5072169;28;20023;-60
2023/07/07 10:39:12;;;;;;;8.85;2.40;;;28.40;62.70;;;;;;5071990;28;20020;-57
2023/07/07 10:41:38;;;;;;;4.28;1.90;;;28.60;64.40;;;;;;5072148;28;20060;-58
2023/07/07 10:44:04;;;;;;;7.38;2.03;;;28.70;67.40;;;;;;5072072;28;20034;-56
2023/07/07 10:46:29;;;;;;;4.00;2.05;;;28.90;66.00;;;;;;5071986;28;20021;-60
2023/07/07 10:48:56;;;;;;;5.10;1.85;;;28.90;60.50;;;;;;5071937;28;20032;-57
2023/07/07 10:51:49;;;;;;;5.38;1.80;;;28.90;59.00;;;;;;5071971;28;20092;-59
2023/07/07 10:54:38;;;;;;;3.20;1.77;;;29.10;59.40;;;;;;5071846;28;20044;-55
2023/07/07 10:57:32;;;;;;;3.97;1.77;;;29.00;60.90;;;;;;5071918;28;20071;-60
2023/07/07 11:00:12;;;;;;;4.97;2.20;;;29.10;59.10;;;;;;5071696;28;20032;-56
2023/07/07 11:02:40;;;;;;;4.40;1.80;;;29.30;59.30;;;;;;5071762;28;20024;-59
2023/07/07 11:05:28;;;;;;;5.43;1.75;;;29.40;59.00;;;;;;5071716;28;20024;-57
2023/07/07 11:08:09;;;;;;;5.43;1.90;;;29.70;60.30;;;;;;5071571;28;20087;-60
2023/07/07 11:11:01;;;;;;;4.80;2.30;;;29.30;55.40;;;;;;5071632;28;20024;-60
2023/07/07 11:13:47;;;;;;;50.03;4.45;;;29.30;55.70;;;;;;5071690;28;20089;-58
2023/07/07 11:16:32;;;;;;;8.18;2.33;;;29.40;54.00;;;;;;5071581;28;20035;-60
2023/07/07 11:19:17;;;;;;;13.05;2.03;;;29.40;54.50;;;;;;5071530;28;20055;-53
2023/07/07 11:22:04;;;;;;;10.85;1.92;;;29.40;54.60;;;;;;5071580;28;20402;-54
2023/07/07 11:24:54;;;;;;;6.95;2.45;;;29.80;55.40;;;;;;5071491;28;20063;-58
2023/07/07 11:27:39;;;;;;;3.83;1.42;;;29.70;53.80;;;;;;5071496;28;20390;-57
2023/07/07 11:30:31;;;;;;;3.97;1.98;;;29.50;51.70;;;;;;5071489;28;20024;-57
2023/07/07 11:33:21;;;;;;;7.28;2.22;;;30.00;53.40;;;;;;5071142;28;20036;-55
2023/07/07 11:36:24;;;;;;;14.30;2.70;;;30.50;58.80;;;;;;5071292;28;20032;-58
2023/07/07 11:39:24;;;;;;;4.03;2.20;;;30.70;55.30;;;;;;5071194;28;20036;-58
2023/07/07 11:42:14;;;;;;;8.85;2.13;;;30.40;50.10;;;;;;5071240;28;20039;-57
2023/07/07 11:44:52;;;;;;;4.72;2.22;;;30.40;47.80;;;;;;5071314;28;20045;-60
2023/07/07 11:47:59;;;;;;;4.45;2.10;;;30.50;47.50;;;;;;5071212;28;20028;-60
2023/07/07 11:50:32;;;;;;;4.40;1.92;;;30.50;49.60;;;;;;5071147;28;20532;-58
2023/07/07 11:53:30;;;;;;;2.53;1.63;;;30.70;51.80;;;;;;5071291;28;20063;-57
2023/07/07 11:56:29;;;;;;;6.57;1.80;;;30.80;54.30;;;;;;5070839;28;20353;-60
2023/07/07 11:59:01;;;;;;;3.20;2.30;;;31.00;53.00;;;;;;5069828;28;20036;-56
2023/07/07 12:01:36;;;;;;;3.22;1.67;;;31.20;51.70;;;;;;5071202;28;20031;-56
2023/07/07 12:04:38;;;;;;;5.35;1.77;;;31.40;55.90;;;;;;5071125;28;20021;-58
2023/07/07 12:07:12;;;;;;;7.55;2.03;;;31.30;54.40;;;;;;5068789;28;20020;-59
2023/07/07 12:09:46;;;;;;;3.40;1.83;;;31.90;50.40;;;;;;5070473;28;20055;-59
2023/07/07 12:12:16;;;;;;;;;;;32.00;49.50;;;;;;5071656;28;20058;-57
2023/07/07 12:14:45;;;;;;;8.02;2.08;;;31.90;49.30;;;;;;5070965;28;19904;-58
2023/07/07 12:17:16;;;;;;;3.92;1.80;;;32.10;50.20;;;;;;5070794;28;20830;-60
2023/07/07 12:19:51;;;;;;;2.90;1.92;;;32.40;48.70;;;;;;5070829;28;20036;-59
2023/07/07 12:22:21;;;;;;;4.53;2.08;;;32.20;49.70;;;;;;5070950;28;20074;-57
2023/07/07 12:25:02;;;;;;;5.78;1.80;;;32.10;52.40;;;;;;5070821;28;20501;-61
2023/07/07 12:27:41;;;;;;;4.72;1.58;;;32.00;55.40;;;;;;5070673;28;20039;-59
2023/07/07 12:30:19;;;;;;;5.20;1.92;;;32.00;53.60;;;;;;5070915;28;20048;-58
2023/07/07 12:32:44;;;;;;;3.75;1.88;;;31.90;52.60;;;;;;5071002;28;20020;-56
2023/07/07 12:35:16;;;;;;;2.53;2.03;;;31.90;52.30;;;;;;5070834;28;20435;-57
2023/07/07 12:37:42;;;;;;;7.38;2.78;;;32.20;45.10;;;;;;5070620;28;20056;-58
2023/07/07 12:40:08;;;;;;;6.28;1.80;;;32.20;45.40;;;;;;5070721;28;20107;-61
2023/07/07 12:42:34;;;;;;;2.90;1.90;;;32.60;47.00;;;;;;5070573;28;20534;-58
2023/07/07 12:45:15;;;;;;;6.00;2.13;;;32.60;45.20;;;;;;5071372;28;20047;-59
2023/07/07 12:47:41;;;;;;;4.25;2.05;;;32.70;45.30;;;;;;5074205;28;20032;-59
2023/07/07 12:50:25;;;;;;;2.80;1.90;;;32.90;48.80;;;;;;5074601;28;20383;-61
2023/07/07 12:52:51;;;;;;;;;;;32.70;43.50;;;;;;5074869;28;20031;-59
2023/07/07 12:55:28;;;;;;;3.92;2.28;;;32.90;48.30;;;;;;5074138;28;19911;-59
2023/07/07 12:58:23;;;;;;;2.72;2.03;;;33.00;45.10;;;;;;5074217;28;20035;-59
2023/07/07 13:01:07;;;;;;;4.53;1.90;;;33.30;44.50;;;;;;5073409;28;20056;-52
2023/07/07 13:03:42;;;;;;;2.60;1.67;;;32.30;46.80;;;;;;5073979;28;20545;-58